Dades meteomassalio
Diari Summary for Setembre 27, 2017 Units:  Metric    English   Both
« Previous Day
Next Day »
Diari Semanal Mensual Anual Personalitzat
  Maxima: Minima: Mijana:
Temperatura: -17.8 °C -13.2 °C -8.4 °C
Rosada: -17.8 °C -14 °C -11.6 °C
Humitat: Humidity % 45 % 72 %
Velocitat del vent: 0 km/h 0 km/h 9.3 km/h
Racha vent: 0 km/h - -
Vent:- - SE
Pressio: 0 hPa 34567.7 hPa -
Pluja: 0 mm    
Historical Graphs
 
 
Tabular Data for Setembre 27, 2017
Time Temperature Dew Point Pressure Wind Wind Speed Wind Gust Humidity Rainfall Rate (Hourly) solar Conditions
-17.8 °C -17.8 °C 0 hPa Calm     Humidity % 0 mm SolarRadiationWatts/m^2 W/m2 Conditions
00:01 -10.1 °C -12.1 °C 34635.4 hPa Calm     79 % 0 mm 0.0 W/m2 CLR
00:06 -10.4 °C -12.3 °C 34635.4 hPa Calm     79 % 0 mm 0.0 W/m2 CLR
00:11 -10.4 °C -12.3 °C 34645.6 hPa Calm     79 % 0 mm 0.0 W/m2 CLR
00:16 -10.4 °C -12.3 °C 34645.6 hPa Calm     79 % 0 mm 0.0 W/m2 CLR
00:21 -10.7 °C -12.7 °C 34645.6 hPa Calm     79 % 0 mm 0.0 W/m2 CLR
00:26 -10.7 °C -12.7 °C 34645.6 hPa Calm     79 % 0 mm 0.0 W/m2 CLR
00:31 -10.7 °C -12.6 °C 34645.6 hPa Calm     80 % 0 mm 0.0 W/m2 CLR
00:36 -11 °C -12.8 °C 34645.6 hPa Calm     80 % 0 mm 0.0 W/m2 CLR
00:41 -11 °C -12.7 °C 34645.6 hPa Calm     81 % 0 mm 0.0 W/m2 CLR
00:46 -11 °C -12.8 °C 34645.6 hPa Calm     80 % 0 mm 0.0 W/m2 CLR
00:51 -11 °C -12.8 °C 34645.6 hPa Calm     80 % 0 mm 0.0 W/m2 CLR
00:56 -11.3 °C -13.2 °C 34645.6 hPa Calm     80 % 0 mm 0.0 W/m2 CLR
01:01 -11.3 °C -13.2 °C 34645.6 hPa Calm     80 % 0 mm 0.0 W/m2 CLR
01:06 -11.3 °C -13.1 °C 34645.6 hPa Calm     81 % 0 mm 0.0 W/m2 CLR
01:11 -11.3 °C -13.1 °C 34645.6 hPa Calm     81 % 0 mm 0.0 W/m2 CLR
01:16 -11.3 °C -12.9 °C 34645.6 hPa Calm     82 % 0 mm 0.0 W/m2 CLR
01:21 -11.3 °C -12.8 °C 34645.6 hPa Calm     83 % 0 mm 0.0 W/m2 CLR
01:26 -11.3 °C -12.9 °C 34635.4 hPa Calm     82 % 0 mm 0.0 W/m2 CLR
01:31 -11.6 °C -13.2 °C 34635.4 hPa Calm     82 % 0 mm 0.0 W/m2 CLR
01:36 -11.6 °C -13.2 °C 34635.4 hPa Calm     82 % 0 mm 0.0 W/m2 CLR
01:41 -11.6 °C -13.2 °C 34635.4 hPa Calm     82 % 0 mm 0.0 W/m2 CLR
01:46 -11.6 °C -13.2 °C 34635.4 hPa Calm     82 % 0 mm 0.0 W/m2 CLR
01:51 -11.6 °C -13.2 °C 34635.4 hPa Calm     83 % 0 mm 0.0 W/m2 CLR
01:56 -11.6 °C -13.2 °C 34635.4 hPa Calm     83 % 0 mm 0.0 W/m2 CLR
02:01 -11.3 °C -12.7 °C 34635.4 hPa Calm     84 % 0 mm 0.0 W/m2 CLR
02:06 -11.3 °C -12.7 °C 34635.4 hPa Calm     84 % 0 mm 0.0 W/m2 CLR
02:11 -11.3 °C -12.7 °C 34635.4 hPa Calm     84 % 0 mm 0.0 W/m2 CLR
02:16 -11.6 °C -13.2 °C 34635.4 hPa Calm     83 % 0 mm 0.0 W/m2 CLR
02:21 -11.6 °C -13.1 °C 34635.4 hPa Calm     84 % 0 mm 0.0 W/m2 CLR
02:26 -11.6 °C -13.1 °C 34635.4 hPa Calm     84 % 0 mm 0.0 W/m2 CLR
02:31 -11.6 °C -13.1 °C 34635.4 hPa Calm     84 % 0 mm 0.0 W/m2 CLR
02:36 -11.6 °C -12.9 °C 34635.4 hPa Calm     85 % 0 mm 0.0 W/m2 CLR
02:41 -11.9 °C -13.3 °C 34635.4 hPa Calm     85 % 0 mm 0.0 W/m2 CLR
02:46 -11.9 °C -13.3 °C 34625.2 hPa Calm     85 % 0 mm 0.0 W/m2 CLR
02:51 -11.9 °C -13.3 °C 34635.4 hPa Calm     85 % 0 mm 0.0 W/m2 CLR
02:56 -11.9 °C -13.3 °C 34625.2 hPa Calm     85 % 0 mm 0.0 W/m2 CLR
03:01 -11.9 °C -13.3 °C 34635.4 hPa Calm     85 % 0 mm 0.0 W/m2 CLR
03:06 -12.2 °C -13.6 °C 34625.2 hPa Calm     85 % 0 mm 0.0 W/m2 CLR
03:11 -12.2 °C -13.4 °C 34625.2 hPa Calm     86 % 0 mm 0.0 W/m2 CLR
03:16 -12.2 °C -13.4 °C 34625.2 hPa Calm     86 % 0 mm 0.0 W/m2 CLR
03:21 -12.2 °C -13.4 °C 34625.2 hPa Calm     86 % 0 mm 0.0 W/m2 CLR
03:26 -12.2 °C -13.4 °C 34625.2 hPa Calm     86 % 0 mm 0.0 W/m2 CLR
03:31 -12.2 °C -13.4 °C 34625.2 hPa Calm     86 % 0 mm 0.0 W/m2 CLR
03:36 -12.2 °C -13.4 °C 34625.2 hPa Calm     86 % 0 mm 0.0 W/m2 CLR
03:41 -12.2 °C -13.4 °C 34625.2 hPa Calm     87 % 0 mm 0.0 W/m2 CLR
03:46 -12.2 °C -13.4 °C 34625.2 hPa Calm     87 % 0 mm 0.0 W/m2 CLR
03:51 -12.2 °C -13.4 °C 34625.2 hPa Calm     87 % 0 mm 0.0 W/m2 CLR
03:56 -12.6 °C -13.7 °C 34625.2 hPa Calm     87 % 0 mm 0.0 W/m2 CLR
04:01 -12.6 °C -13.7 °C 34625.2 hPa Calm     87 % 0 mm 0.0 W/m2 CLR
04:06 -12.6 °C -13.7 °C 34625.2 hPa Calm     87 % 0 mm 0.0 W/m2 CLR
04:11 -12.6 °C -13.7 °C 34625.2 hPa Calm     87 % 0 mm 0.0 W/m2 CLR
04:16 -12.6 °C -13.7 °C 34625.2 hPa Calm     87 % 0 mm 0.0 W/m2 CLR
04:21 -12.6 °C -13.7 °C 34611.7 hPa Calm     87 % 0 mm 0.0 W/m2 CLR
04:27 -12.6 °C -13.6 °C 34625.2 hPa Calm     88 % 0 mm 0.0 W/m2 CLR
04:32 -12.6 °C -13.6 °C 34625.2 hPa Calm     88 % 0 mm 0.0 W/m2 CLR
04:37 -12.6 °C -13.6 °C 34625.2 hPa Calm     88 % 0 mm 0.0 W/m2 CLR
04:42 -12.6 °C -13.6 °C 34625.2 hPa Calm     88 % 0 mm 0.0 W/m2 CLR
04:47 -12.6 °C -13.6 °C 34611.7 hPa Calm     88 % 0 mm 0.0 W/m2 CLR
04:52 -12.6 °C -13.6 °C 34611.7 hPa Calm     88 % 0 mm 0.0 W/m2 CLR
04:57 -12.6 °C -13.6 °C 34625.2 hPa Calm     88 % 0 mm 0.0 W/m2 CLR
05:02 -12.8 °C -13.9 °C 34625.2 hPa Calm     88 % 0 mm 0.0 W/m2 CLR
05:07 -12.8 °C -13.9 °C 34625.2 hPa Calm     88 % 0 mm 0.0 W/m2 CLR
05:12 -12.8 °C -13.8 °C 34625.2 hPa Calm     89 % 0 mm 0.0 W/m2 CLR
05:17 -12.8 °C -13.8 °C 34625.2 hPa Calm     89 % 0 mm 0.0 W/m2 CLR
05:21 -12.8 °C -13.8 °C 34625.2 hPa Calm     89 % 0 mm 0.0 W/m2 CLR
05:26 -12.8 °C -13.8 °C 34625.2 hPa Calm     89 % 0 mm 0.0 W/m2 CLR
05:31 -12.8 °C -13.8 °C 34625.2 hPa Calm     89 % 0 mm 0.0 W/m2 CLR
05:36 -12.8 °C -13.8 °C 34625.2 hPa Calm     89 % 0 mm 0.0 W/m2 CLR
05:41 -12.8 °C -13.8 °C 34625.2 hPa Calm     89 % 0 mm 0.0 W/m2 CLR
05:46 -12.6 °C -13.5 °C 34625.2 hPa Calm     89 % 0 mm 0.0 W/m2 CLR
05:51 -12.6 °C -13.5 °C 34625.2 hPa Calm     89 % 0 mm 0.0 W/m2 CLR
05:56 -12.8 °C -13.8 °C 34625.2 hPa Calm     89 % 0 mm 0.0 W/m2 CLR
06:01 -12.8 °C -13.8 °C 34625.2 hPa Calm     89 % 0 mm 0.0 W/m2 CLR
06:06 -12.8 °C -13.8 °C 34625.2 hPa Calm     89 % 0 mm 0.0 W/m2 CLR
06:11 -12.8 °C -13.7 °C 34625.2 hPa Calm     90 % 0 mm 0.0 W/m2 CLR
06:16 -12.6 °C -13.4 °C 34635.4 hPa Calm     90 % 0 mm 0.0 W/m2 CLR
06:21 -12.8 °C -13.7 °C 34635.4 hPa Calm     90 % 0 mm 0.0 W/m2 CLR
06:26 -12.8 °C -13.7 °C 34635.4 hPa Calm     90 % 0 mm 0.0 W/m2 CLR
06:31 -12.8 °C -13.7 °C 34635.4 hPa Calm     90 % 0 mm 0.0 W/m2 CLR
06:36 -12.8 °C -13.7 °C 34635.4 hPa Calm     90 % 0 mm 0.0 W/m2 CLR
06:41 -12.8 °C -13.7 °C 34635.4 hPa Calm     90 % 0 mm 0.0 W/m2 CLR
06:46 -12.8 °C -13.7 °C 34635.4 hPa Calm     90 % 0 mm 0.0 W/m2 CLR
06:51 -12.8 °C -13.7 °C 34635.4 hPa Calm     90 % 0 mm 0.0 W/m2 CLR
06:56 -12.8 °C -13.7 °C 34635.4 hPa Calm     90 % 0 mm 0.0 W/m2 CLR
07:01 -13.2 °C -14 °C 34635.4 hPa Calm     90 % 0 mm 0.0 W/m2 CLR
07:06 -13.2 °C -14 °C 34635.4 hPa Calm     90 % 0 mm 0.0 W/m2 CLR
07:11 -13.2 °C -13.9 °C 34635.4 hPa Calm     91 % 0 mm 0.0 W/m2 CLR
07:16 -13.2 °C -14 °C 34635.4 hPa Calm     90 % 0 mm 0.0 W/m2 CLR
07:21 -13.2 °C -14 °C 34635.4 hPa Calm     90 % 0 mm 0.0 W/m2 CLR
07:26 -13.2 °C -14 °C 34635.4 hPa Calm     90 % 0 mm 0.0 W/m2 CLR
07:31 -13.2 °C -13.9 °C 34645.6 hPa Calm     91 % 0 mm 0.0 W/m2 CLR
07:36 -13.2 °C -13.9 °C 34645.6 hPa Calm     91 % 0 mm 0.0 W/m2 CLR
07:41 -13.2 °C -13.9 °C 34645.6 hPa Calm     91 % 0 mm 0.0 W/m2 CLR
07:46 -13.2 °C -13.9 °C 34645.6 hPa Calm     91 % 0 mm 0.0 W/m2 OVC
07:51 -13.2 °C -13.9 °C 34645.6 hPa Calm     91 % 0 mm 0.0 W/m2 OVC
07:56 -13.2 °C -14 °C 34645.6 hPa Calm     90 % 0 mm 5.0 W/m2 OVC
08:01 -13.2 °C -13.9 °C 34645.6 hPa Calm     91 % 0 mm 7.0 W/m2 BKN
08:06 -13.2 °C -13.9 °C 34645.6 hPa Calm     91 % 0 mm 11.0 W/m2 BKN
08:11 -13.2 °C -13.9 °C 34645.6 hPa Calm     91 % 0 mm 14.0 W/m2 BKN
08:16 -13.2 °C -13.9 °C 34645.6 hPa Calm     91 % 0 mm 19.0 W/m2 BKN
08:21 -13.2 °C -13.9 °C 34659.1 hPa Calm     91 % 0 mm 26.0 W/m2 BKN
08:26 -13.2 °C -13.9 °C 34659.1 hPa Calm     91 % 0 mm 37.0 W/m2 BKN
08:31 -12.8 °C -13.6 °C 34659.1 hPa Calm     91 % 0 mm 49.0 W/m2 SCT
08:36 -12.8 °C -13.6 °C 34659.1 hPa Calm     91 % 0 mm 54.0 W/m2 SCT
08:41 -12.6 °C -13.3 °C 34659.1 hPa Calm     91 % 0 mm 74.0 W/m2 FEW
08:46 -12.6 °C -13.3 °C 34659.1 hPa Calm     91 % 0 mm 76.0 W/m2 FEW
08:47 -12.6 °C -13.3 °C 34659.1 hPa Calm     91 % 0 mm 76.0 W/m2 FEW
08:52 -12.2 °C -13.1 °C 34659.1 hPa Calm     90 % 0 mm 100.0 W/m2 CLR
08:57 -12.2 °C -13.1 °C 34659.1 hPa Calm     90 % 0 mm 98.0 W/m2 CLR
09:02 -12.2 °C -13.1 °C 34659.1 hPa Calm     90 % 0 mm 100.0 W/m2 CLR
09:07 -11.9 °C -12.8 °C 34659.1 hPa Calm     90 % 0 mm 123.0 W/m2 CLR
09:12 -11.9 °C -12.9 °C 34659.1 hPa Calm     89 % 0 mm 160.0 W/m2 CLR
09:17 -11.6 °C -12.6 °C 34659.1 hPa Calm     89 % 0 mm 181.0 W/m2 CLR
09:20 -11.6 °C -12.7 °C 34659.1 hPa Calm     88 % 0 mm 193.0 W/m2 CLR
09:25 -11.6 °C -12.9 °C 34659.1 hPa Calm     86 % 0 mm 211.0 W/m2 CLR
09:30 -11.3 °C -12.7 °C 34669.3 hPa Calm     85 % 0 mm 225.0 W/m2 CLR
09:35 -11.3 °C -12.8 °C 34669.3 hPa Calm     83 % 0 mm 241.0 W/m2 CLR
09:40 -11 °C -12.6 °C 34669.3 hPa Calm     83 % 0 mm 258.0 W/m2 CLR
09:45 -10.7 °C -12.3 °C 34669.3 hPa Calm     82 % 0 mm 272.0 W/m2 CLR
09:50 -10.7 °C -12.4 °C 34669.3 hPa Calm     81 % 0 mm 288.0 W/m2 CLR
09:55 -10.7 °C -12.6 °C 34669.3 hPa Calm     80 % 0 mm 304.0 W/m2 CLR
10:00 -10.4 °C -12.4 °C 34669.3 hPa Calm     78 % 0 mm 318.0 W/m2 CLR
10:05 -10.1 °C -12.4 °C 34669.3 hPa Calm     76 % 0 mm 336.0 W/m2 CLR
10:10 -10.1 °C -12.4 °C 34669.3 hPa Calm     75 % 0 mm 350.0 W/m2 CLR
10:15 -9.8 °C -12.3 °C 34669.3 hPa Calm     74 % 0 mm 364.0 W/m2 CLR
10:20 -9.4 °C -12 °C 34669.3 hPa Calm     74 % 0 mm 378.0 W/m2 CLR
10:25 -9.1 °C -11.8 °C 34669.3 hPa Calm     73 % 0 mm 394.0 W/m2 CLR
10:30 -8.8 °C -11.6 °C 34669.3 hPa Calm     72 % 0 mm 408.0 W/m2 CLR
10:35 -8.5 °C -11.3 °C 34669.3 hPa Calm     72 % 0 mm 422.0 W/m2 CLR
10:40 -8.2 °C -11.4 °C 34682.8 hPa Calm     69 % 0 mm 436.0 W/m2 CLR
10:45 -7.9 °C -11.1 °C 34682.8 hPa Calm     69 % 0 mm 446.0 W/m2 CLR
10:50 -7.6 °C -10.9 °C 34682.8 hPa Calm     68 % 0 mm 461.0 W/m2 CLR
10:55 -7.3 °C -10.8 °C 34682.8 hPa Calm     67 % 0 mm 473.0 W/m2 CLR
11:00 -7.3 °C -10.8 °C 34682.8 hPa Calm     67 % 0 mm 485.0 W/m2 CLR
11:05 -7 °C -10.6 °C 34669.3 hPa North 9 km/h 9 km/h 66 % 0 mm 501.0 W/m2 CLR
11:10 -6.7 °C -10.4 °C 34669.3 hPa North 9 km/h 9 km/h 65 % 0 mm 513.0 W/m2 CLR
11:15 -6.3 °C -10.2 °C 34669.3 hPa North 11.9 km/h 11.9 km/h 65 % 0 mm 524.0 W/m2 CLR
11:20 -6.3 °C -10.3 °C 34669.3 hPa NW 11.9 km/h 11.9 km/h 64 % 0 mm 533.0 W/m2 CLR
11:25 -6.3 °C -10.3 °C 34669.3 hPa Calm     64 % 0 mm 545.0 W/m2 CLR
11:30 -6.3 °C -10.3 °C 34669.3 hPa NNW 9 km/h 9 km/h 64 % 0 mm 561.0 W/m2 CLR
11:35 -6.3 °C -10.4 °C 34669.3 hPa NNW 9 km/h 9 km/h 63 % 0 mm 570.0 W/m2 CLR
11:40 -6.1 °C -10.1 °C 34669.3 hPa NNW 9 km/h 9 km/h 63 % 0 mm 578.0 W/m2 CLR
11:45 -5.7 °C -9.9 °C 34669.3 hPa NW 3.1 km/h 3.1 km/h 62 % 0 mm 589.0 W/m2 CLR
11:50 -5.7 °C -10.1 °C 34669.3 hPa Calm     61 % 0 mm 601.0 W/m2 CLR
11:55 -5.7 °C -10.1 °C 34669.3 hPa NNE 10.3 km/h 10.3 km/h 61 % 0 mm 612.0 W/m2 CLR
12:00 -5.7 °C -10.1 °C 34669.3 hPa NW 3.1 km/h 3.1 km/h 61 % 0 mm 621.0 W/m2 CLR
12:05 -5.4 °C -9.8 °C 34669.3 hPa Calm     61 % 0 mm 629.0 W/m2 CLR
12:10 -5.7 °C -10.4 °C 34659.1 hPa NNE 6 km/h 6 km/h 59 % 0 mm 635.0 W/m2 CLR
12:15 -5.4 °C -10.1 °C 34659.1 hPa ENE 3.1 km/h 3.1 km/h 59 % 0 mm 645.0 W/m2 CLR
12:20 -5.4 °C -9.9 °C 34659.1 hPa NE 17.9 km/h 17.9 km/h 60 % 0 mm 654.0 W/m2 CLR
12:25 -5.1 °C -9.8 °C 34659.1 hPa NNE 9 km/h 9 km/h 59 % 0 mm 659.0 W/m2 CLR
12:30 -5.1 °C -9.8 °C 34659.1 hPa NNE 9 km/h 9 km/h 59 % 0 mm 661.0 W/m2 CLR
12:35 -4.8 °C -9.5 °C 34659.1 hPa Calm     59 % 0 mm 679.0 W/m2 CLR
12:40 -4.5 °C -9.4 °C 34659.1 hPa NNW 3.1 km/h   58 % 0 mm 684.0 W/m2 CLR
12:45 -4.8 °C -9.8 °C 34659.1 hPa Calm     57 % 0 mm 689.0 W/m2 CLR
12:50 -4.5 °C -9.6 °C 34645.6 hPa NNW 6 km/h 6 km/h 57 % 0 mm 707.0 W/m2 CLR
12:55 -4.5 °C -9.7 °C 34645.6 hPa NE 11.9 km/h 11.9 km/h 56 % 0 mm 722.0 W/m2 CLR
13:00 -4.5 °C -10 °C 34645.6 hPa Calm     54 % 0 mm 714.0 W/m2 CLR
13:05 -4.5 °C -9.8 °C 34645.6 hPa East 15.6 km/h 15.6 km/h 55 % 0 mm 707.0 W/m2 CLR
13:10 -4.2 °C -9.4 °C 34645.6 hPa Calm     56 % 0 mm 693.0 W/m2 CLR
13:15 -4.5 °C -9.8 °C 34635.4 hPa WNW 6 km/h 6 km/h 55 % 0 mm 712.0 W/m2 CLR
13:20 -4.5 °C -9.8 °C 34635.4 hPa North 9 km/h 9 km/h 55 % 0 mm 717.0 W/m2 CLR
13:25 -4.2 °C -9.9 °C 34635.4 hPa Calm     53 % 0 mm 719.0 W/m2 CLR
13:30 -4.2 °C -9.9 °C 34635.4 hPa Calm     53 % 0 mm 715.0 W/m2 CLR
13:35 -3.9 °C -9.9 °C 34635.4 hPa North 20.9 km/h 20.9 km/h 51 % 0 mm 728.0 W/m2 CLR
13:40 -4.2 °C -9.9 °C 34635.4 hPa Calm     53 % 0 mm 724.0 W/m2 CLR
13:45 -3.6 °C -9.5 °C 34635.4 hPa West 2.6 km/h   52 % 0 mm 721.0 W/m2 CLR
13:50 -3.9 °C -9.9 °C 34625.2 hPa Calm     51 % 0 mm 724.0 W/m2 CLR
13:55 -3.9 °C -10.1 °C 34625.2 hPa North 20.9 km/h 20.9 km/h 50 % 0 mm 724.0 W/m2 CLR
14:00 -3.9 °C -10.2 °C 34625.2 hPa WNW 15 km/h 15 km/h 49 % 0 mm 726.0 W/m2 CLR
14:05 -3.9 °C -10.1 °C 34625.2 hPa NNW 17.9 km/h 17.9 km/h 50 % 0 mm 726.0 W/m2 CLR
14:10 -3.9 °C -10.1 °C 34625.2 hPa NNE 29.8 km/h 29.8 km/h 50 % 0 mm 724.0 W/m2 CLR
14:15 -3.9 °C -9.9 °C 34611.7 hPa Calm     51 % 0 mm 722.0 W/m2 CLR
14:20 -3.9 °C -10.2 °C 34611.7 hPa NW 5.1 km/h 5.1 km/h 49 % 0 mm 729.0 W/m2 CLR
14:25 -3.9 °C -10.4 °C 34611.7 hPa NW 23.8 km/h 23.8 km/h 48 % 0 mm 728.0 W/m2 CLR
14:30 -3.6 °C -10.2 °C 34611.7 hPa WNW 11.9 km/h 11.9 km/h 48 % 0 mm 722.0 W/m2 CLR
14:35 -3.3 °C -9.9 °C 34611.7 hPa Calm     48 % 0 mm 722.0 W/m2 CLR
14:40 -3.3 °C -10.4 °C 34611.7 hPa NW 6 km/h   45 % 0 mm 726.0 W/m2 CLR
14:45 -3.3 °C -10.2 °C 34611.7 hPa NNE 12.9 km/h 12.9 km/h 46 % 0 mm 726.0 W/m2 CLR
14:50 -2.9 °C -10.2 °C 34601.5 hPa WNW 26.9 km/h 26.9 km/h 45 % 0 mm 721.0 W/m2 CLR
14:55 -3.3 °C -10.4 °C 34601.5 hPa NW 20.9 km/h 20.9 km/h 45 % 0 mm 708.0 W/m2 CLR
15:00 -3.6 °C -10.7 °C 34601.5 hPa NW 11.9 km/h 11.9 km/h 45 % 0 mm 694.0 W/m2 CLR
15:05 -3.3 °C -10.4 °C 34601.5 hPa NNE 29.8 km/h 29.8 km/h 45 % 0 mm 687.0 W/m2 CLR
15:10 -3.3 °C -10.2 °C 34601.5 hPa NE 29.8 km/h 29.8 km/h 46 % 0 mm 686.0 W/m2 CLR
15:15 -3.3 °C -10.1 °C 34601.5 hPa ENE 29.8 km/h 29.8 km/h 47 % 0 mm 684.0 W/m2 CLR
15:20 -2.9 °C -9.8 °C 34601.5 hPa NNE 23.8 km/h 23.8 km/h 47 % 0 mm 670.0 W/m2 CLR
15:26 -2.9 °C -9.8 °C 34601.5 hPa East 7.7 km/h 7.7 km/h 47 % 0 mm 656.0 W/m2 CLR
15:31 -2.7 °C -9.8 °C 34601.5 hPa East 29.8 km/h 29.8 km/h 45 % 0 mm 656.0 W/m2 CLR
15:36 -2.9 °C -9.9 °C 34591.4 hPa North 23.8 km/h 23.8 km/h 46 % 0 mm 650.0 W/m2 CLR
15:41 -3.3 °C -10.1 °C 34591.4 hPa NNW 25.9 km/h 25.9 km/h 47 % 0 mm 640.0 W/m2 CLR
15:46 -2.9 °C -9.9 °C 34591.4 hPa North 29.8 km/h 29.8 km/h 46 % 0 mm 628.0 W/m2 CLR
15:51 -3.3 °C -10.2 °C 34591.4 hPa North 26.9 km/h 26.9 km/h 46 % 0 mm 633.0 W/m2 CLR
15:56 -3.6 °C -10.5 °C 34591.4 hPa NW 23.8 km/h 23.8 km/h 46 % 0 mm 603.0 W/m2 CLR
16:01 -3.3 °C -10.1 °C 34591.4 hPa NNW 15 km/h 15 km/h 47 % 0 mm 594.0 W/m2 CLR
16:06 -3.3 °C -10.2 °C 34591.4 hPa NW 26.9 km/h 26.9 km/h 46 % 0 mm 585.0 W/m2 CLR
16:11 -3.3 °C -10.1 °C 34591.4 hPa NNW 18.2 km/h 18.2 km/h 47 % 0 mm 575.0 W/m2 CLR
16:16 -2.9 °C -9.8 °C 34591.4 hPa NNW 29.8 km/h 29.8 km/h 47 % 0 mm 585.0 W/m2 CLR
16:21 -2.9 °C -9.8 °C 34577.8 hPa NW 15 km/h 15 km/h 47 % 0 mm 584.0 W/m2 CLR
16:26 -2.9 °C -9.8 °C 34577.8 hPa ENE 38.8 km/h 38.8 km/h 47 % 0 mm 554.0 W/m2 CLR
16:31 -3.6 °C -10.2 °C 34577.8 hPa ENE 20.9 km/h 20.9 km/h 48 % 0 mm 125.0 W/m2 CLR
16:36 -3.9 °C -10.1 °C 34577.8 hPa NE 26.9 km/h 26.9 km/h 50 % 0 mm 165.0 W/m2 CLR
16:41 -3.6 °C -9.6 °C 34577.8 hPa NE 26.9 km/h 26.9 km/h 51 % 0 mm 209.0 W/m2 CLR
16:46 -3.3 °C -9.3 °C 34577.8 hPa East 20.9 km/h 20.9 km/h 51 % 0 mm 527.0 W/m2 CLR
16:51 -3.3 °C -9.3 °C 34577.8 hPa NE 32.8 km/h 32.8 km/h 51 % 0 mm 503.0 W/m2 CLR
16:56 -3.3 °C -9.3 °C 34577.8 hPa NNE 23.8 km/h 23.8 km/h 51 % 0 mm 489.0 W/m2 CLR
17:01 -3.3 °C -9.3 °C 34577.8 hPa ENE 29.8 km/h 29.8 km/h 51 % 0 mm 459.0 W/m2 CLR
17:06 -2.9 °C -9.1 °C 34577.8 hPa NE 29.8 km/h 29.8 km/h 51 % 0 mm 438.0 W/m2 CLR
17:11 -3.3 °C -9.3 °C 34577.8 hPa ESE 29.8 km/h 29.8 km/h 51 % 0 mm 410.0 W/m2 CLR
17:16 -3.3 °C -9.3 °C 34577.8 hPa ENE 23.8 km/h 23.8 km/h 51 % 0 mm 392.0 W/m2 CLR
17:21 -3.3 °C -9.2 °C 34577.8 hPa NE 32.8 km/h 32.8 km/h 52 % 0 mm 387.0 W/m2 CLR
17:26 -3.3 °C -9.2 °C 34577.8 hPa East 26.9 km/h 26.9 km/h 52 % 0 mm 373.0 W/m2 CLR
17:31 -3.6 °C -9.5 °C 34577.8 hPa ENE 29.8 km/h 29.8 km/h 52 % 0 mm 359.0 W/m2 CLR
17:36 -3.6 °C -9.3 °C 34577.8 hPa ENE 32.8 km/h 32.8 km/h 53 % 0 mm 341.0 W/m2 CLR
17:41 -3.6 °C -9.3 °C 34577.8 hPa ENE 35.7 km/h 35.7 km/h 53 % 0 mm 327.0 W/m2 CLR
17:46 -3.6 °C -9.1 °C 34577.8 hPa NE 29.8 km/h 29.8 km/h 54 % 0 mm 309.0 W/m2 CLR
17:51 -3.9 °C -9.3 °C 34567.7 hPa NE 32.8 km/h 32.8 km/h 55 % 0 mm 295.0 W/m2 CLR
17:56 -3.9 °C -9.4 °C 34577.8 hPa NE 38.8 km/h 38.8 km/h 54 % 0 mm 279.0 W/m2 CLR
18:01 -3.9 °C -9.3 °C 34577.8 hPa ENE 38.8 km/h 38.8 km/h 55 % 0 mm 260.0 W/m2 CLR
18:06 -3.9 °C -9.3 °C 34577.8 hPa NE 41.7 km/h 41.7 km/h 55 % 0 mm 246.0 W/m2 CLR
18:11 -4.2 °C -9.6 °C 34577.8 hPa East 35.7 km/h 35.7 km/h 55 % 0 mm 230.0 W/m2 CLR
18:16 -4.2 °C -9.4 °C 34577.8 hPa NNE 31.1 km/h 31.1 km/h 56 % 0 mm 216.0 W/m2 CLR
18:21 -4.2 °C -9.2 °C 34577.8 hPa NE 36.2 km/h 36.2 km/h 57 % 0 mm 193.0 W/m2 CLR
18:26 -4.5 °C -9.6 °C 34591.4 hPa ENE 32.8 km/h 32.8 km/h 57 % 0 mm 174.0 W/m2 CLR
18:27 -4.5 °C -9.6 °C 34591.4 hPa NE 29.8 km/h 29.8 km/h 57 % 0 mm 171.0 W/m2 CLR
18:32 -4.5 °C -9.4 °C 34591.4 hPa ENE 29.8 km/h 29.8 km/h 58 % 0 mm 156.0 W/m2 CLR
18:37 -4.5 °C -9.2 °C 34591.4 hPa ENE 29.8 km/h 29.8 km/h 59 % 0 mm 141.0 W/m2 CLR
18:42 -4.5 °C -9.2 °C 34591.4 hPa ENE 31.1 km/h 31.1 km/h 59 % 0 mm 125.0 W/m2 CLR
18:47 -4.8 °C -9.4 °C 34591.4 hPa ENE 41.4 km/h 41.4 km/h 60 % 0 mm 107.0 W/m2 CLR
18:52 -4.8 °C -9.4 °C 34591.4 hPa NE 32.8 km/h 32.8 km/h 60 % 0 mm 91.0 W/m2 CLR
18:57 -4.8 °C -9.4 °C 34591.4 hPa ENE 32.8 km/h 32.8 km/h 60 % 0 mm 79.0 W/m2 FEW
19:02 -4.8 °C -9.2 °C 34591.4 hPa East 33.6 km/h 33.6 km/h 61 % 0 mm 58.0 W/m2 SCT
19:07 -5.1 °C -9.4 °C 34591.4 hPa ENE 38.8 km/h 38.8 km/h 62 % 0 mm 46.0 W/m2 BKN
19:12 -5.1 °C -9.4 °C 34591.4 hPa NE 35.7 km/h 35.7 km/h 62 % 0 mm 32.0 W/m2 BKN
19:17 -5.4 °C -9.6 °C 34591.4 hPa ENE 23.3 km/h 23.3 km/h 63 % 0 mm 25.0 W/m2 BKN
19:22 -5.4 °C -9.6 °C 34601.5 hPa ENE 23.8 km/h 23.8 km/h 63 % 0 mm 16.0 W/m2 BKN
19:27 -5.4 °C -9.4 °C 34601.5 hPa ENE 32.8 km/h 32.8 km/h 64 % 0 mm 11.0 W/m2 BKN
19:32 -5.7 °C -9.7 °C 34601.5 hPa NE 12.9 km/h 12.9 km/h 64 % 0 mm 7.0 W/m2 BKN
19:37 -5.7 °C -9.7 °C 34601.5 hPa ENE 6 km/h   64 % 0 mm 5.0 W/m2 OVC
19:42 -6.1 °C -9.8 °C 34601.5 hPa ENE 20.9 km/h 20.9 km/h 65 % 0 mm 5.0 W/m2 OVC
19:47 -6.3 °C -10 °C 34601.5 hPa ENE 9 km/h 9 km/h 66 % 0 mm 0.0 W/m2 OVC
19:48 -6.3 °C -10 °C 34611.7 hPa ENE 9 km/h 9 km/h 66 % 0 mm 0.0 W/m2 OVC
19:53 -6.3 °C -10 °C 34611.7 hPa East 3.1 km/h 3.1 km/h 66 % 0 mm 0.0 W/m2 OVC
19:58 -6.3 °C -9.9 °C 34611.7 hPa ENE 17.9 km/h 17.9 km/h 67 % 0 mm 0.0 W/m2 OVC
20:03 -6.3 °C -9.9 °C 34611.7 hPa East 15 km/h 15 km/h 67 % 0 mm 0.0 W/m2 CLR
20:08 -6.7 °C -10.2 °C 34611.7 hPa East 18.2 km/h 18.2 km/h 67 % 0 mm 0.0 W/m2 CLR
20:13 -7 °C -10.4 °C 34611.7 hPa East 20.9 km/h 20.9 km/h 67 % 0 mm 0.0 W/m2 CLR
20:18 -7 °C -10.3 °C 34611.7 hPa East 20.9 km/h 20.9 km/h 68 % 0 mm 0.0 W/m2 CLR
20:23 -7.3 °C -10.7 °C 34625.2 hPa ENE 7.7 km/h 7.7 km/h 68 % 0 mm 0.0 W/m2 CLR
20:28 -7.3 °C -10.7 °C 34625.2 hPa East 12.9 km/h 12.9 km/h 68 % 0 mm 0.0 W/m2 CLR
20:33 -7.3 °C -10.5 °C 34625.2 hPa East 3.1 km/h   69 % 0 mm 0.0 W/m2 CLR
20:37 -7.6 °C -10.8 °C 34625.2 hPa ENE 18.2 km/h 18.2 km/h 69 % 0 mm 0.0 W/m2 CLR
20:42 -7.6 °C -10.7 °C 34625.2 hPa ENE 15 km/h 15 km/h 70 % 0 mm 0.0 W/m2 CLR
20:47 -7.9 °C -10.9 °C 34635.4 hPa East 20.9 km/h 20.9 km/h 71 % 0 mm 0.0 W/m2 CLR
20:52 -7.9 °C -10.9 °C 34635.4 hPa ENE 11.9 km/h 11.9 km/h 71 % 0 mm 0.0 W/m2 CLR
20:57 -7.9 °C -10.9 °C 34635.4 hPa ENE 20.8 km/h 20.8 km/h 71 % 0 mm 0.0 W/m2 CLR
21:02 -8.2 °C -11.1 °C 34635.4 hPa ENE 20.9 km/h 20.9 km/h 72 % 0 mm 0.0 W/m2 CLR
21:07 -8.2 °C -11.1 °C 34635.4 hPa ENE 17.9 km/h 17.9 km/h 72 % 0 mm 0.0 W/m2 CLR
21:12 -8.2 °C -11.1 °C 34645.6 hPa Calm     72 % 0 mm 0.0 W/m2 CLR
21:17 -7.9 °C -10.6 °C 34645.6 hPa Calm     73 % 0 mm 0.0 W/m2 CLR
21:22 -7.9 °C -10.6 °C 34645.6 hPa Calm     73 % 0 mm 0.0 W/m2 CLR
21:27 -7.9 °C -10.6 °C 34645.6 hPa Calm     73 % 0 mm 0.0 W/m2 CLR
21:33 -7.9 °C -10.6 °C 34645.6 hPa Calm     73 % 0 mm 0.0 W/m2 CLR
21:38 -8.2 °C -10.9 °C 34645.6 hPa NE 9 km/h 9 km/h 73 % 0 mm 0.0 W/m2 CLR
21:43 -8.2 °C -10.8 °C 34645.6 hPa ENE 17.9 km/h 17.9 km/h 74 % 0 mm 0.0 W/m2 CLR
21:48 -8.5 °C -11.1 °C 34645.6 hPa ENE 26.9 km/h 26.9 km/h 74 % 0 mm 0.0 W/m2 CLR
21:52 -8.5 °C -11.1 °C 34659.1 hPa East 29.8 km/h 29.8 km/h 74 % 0 mm 0.0 W/m2 CLR
21:58 -8.5 °C -11.1 °C 34659.1 hPa ENE 20.9 km/h 20.9 km/h 74 % 0 mm 0.0 W/m2 CLR
22:03 -8.5 °C -11.1 °C 34659.1 hPa ENE 18.2 km/h 18.2 km/h 74 % 0 mm 0.0 W/m2 CLR
22:08 -8.2 °C -10.7 °C 34659.1 hPa ENE 20.9 km/h 20.9 km/h 75 % 0 mm 0.0 W/m2 CLR
22:09 -8.2 °C -10.7 °C 34659.1 hPa ENE 15 km/h 15 km/h 75 % 0 mm 0.0 W/m2 CLR
22:14 -8.2 °C -10.7 °C 34659.1 hPa East 23.8 km/h 23.8 km/h 75 % 0 mm 0.0 W/m2 CLR
22:19 -8.2 °C -10.7 °C 34659.1 hPa East 17.9 km/h 17.9 km/h 75 % 0 mm 0.0 W/m2 CLR
22:24 -8.2 °C -10.7 °C 34659.1 hPa East 20.9 km/h 20.9 km/h 75 % 0 mm 0.0 W/m2 CLR
22:29 -8.2 °C -10.7 °C 34669.3 hPa East 18.2 km/h 18.2 km/h 75 % 0 mm 0.0 W/m2 CLR
22:34 -8.5 °C -11 °C 34659.1 hPa ENE 23.8 km/h 23.8 km/h 75 % 0 mm 0.0 W/m2 CLR
22:40 -8.5 °C -11 °C 34659.1 hPa East 26.9 km/h 26.9 km/h 75 % 0 mm 0.0 W/m2 CLR
22:45 -8.5 °C -10.9 °C 34659.1 hPa East 26.9 km/h 26.9 km/h 76 % 0 mm 0.0 W/m2 CLR
22:50 -8.5 °C -10.9 °C 34659.1 hPa East 23.8 km/h 23.8 km/h 76 % 0 mm 0.0 W/m2 CLR
22:55 -8.5 °C -11 °C 34659.1 hPa ENE 23.8 km/h 23.8 km/h 75 % 0 mm 0.0 W/m2 CLR
23:00 -8.5 °C -11 °C 34659.1 hPa ENE 17.9 km/h 17.9 km/h 75 % 0 mm 0.0 W/m2 CLR
23:02 -8.5 °C -11 °C 34659.1 hPa ENE 20.9 km/h 20.9 km/h 75 % 0 mm 0.0 W/m2 CLR
23:07 -8.5 °C -11 °C 34659.1 hPa ENE 23.8 km/h 23.8 km/h 75 % 0 mm 0.0 W/m2 CLR
23:12 -8.5 °C -11 °C 34669.3 hPa East 9 km/h   75 % 0 mm 0.0 W/m2 CLR
23:17 -8.8 °C -11.3 °C 34669.3 hPa Calm     75 % 0 mm 0.0 W/m2 CLR
23:22 -8.8 °C -11.3 °C 34669.3 hPa Calm     75 % 0 mm 0.0 W/m2 CLR
23:27 -8.8 °C -11.2 °C 34669.3 hPa Calm     76 % 0 mm 0.0 W/m2 CLR
23:32 -8.8 °C -11.2 °C 34669.3 hPa Calm     76 % 0 mm 0.0 W/m2 CLR
23:37 -8.8 °C -11.2 °C 34669.3 hPa Calm     76 % 0 mm 0.0 W/m2 CLR
23:42 -9.1 °C -11.5 °C 34669.3 hPa Calm     76 % 0 mm 0.0 W/m2 CLR
23:47 -9.1 °C -11.3 °C 34669.3 hPa Calm     77 % 0 mm 0.0 W/m2 CLR
23:52 -9.4 °C -11.7 °C 34669.3 hPa Calm     77 % 0 mm 0.0 W/m2 CLR
23:57 -9.1 °C -11.3 °C 34669.3 hPa Calm     78 % 0 mm 0.0 W/m2 CLR
Lo Temps de Massalio
Compliments of Weather Underground - 1.25 mb